createdAt,value
2019-03-30T04:46:20.831Z,1019.84
2019-03-30T04:47:20.823Z,1019.80
2019-03-30T04:48:20.817Z,1019.84
2019-03-30T04:49:20.798Z,1019.80
2019-03-30T04:50:20.784Z,1019.85
2019-03-30T04:51:20.768Z,1019.87
2019-03-30T04:52:20.770Z,1019.90
2019-03-30T04:53:20.774Z,1019.93
2019-03-30T04:54:20.746Z,1019.92
2019-03-30T04:55:20.735Z,1019.94
2019-03-30T04:56:20.727Z,1019.88
2019-03-30T04:57:20.724Z,1019.86
2019-03-30T04:58:20.701Z,1019.83
2019-03-30T04:59:20.687Z,1019.82
2019-03-30T05:00:20.683Z,1019.83
2019-03-30T05:01:20.682Z,1019.78
2019-03-30T05:02:20.660Z,1019.78
2019-03-30T05:03:20.656Z,1019.76
2019-03-30T05:04:20.641Z,1019.76
2019-03-30T05:05:20.629Z,1019.76
2019-03-30T05:06:20.620Z,1019.71
2019-03-30T05:07:20.602Z,1019.72
2019-03-30T05:08:20.597Z,1019.69
2019-03-30T05:09:20.594Z,1019.71
2019-03-30T05:10:20.579Z,1019.71
2019-03-30T05:11:20.564Z,1019.70
2019-03-30T05:12:21.485Z,1019.71
2019-03-30T05:13:20.538Z,1019.71
2019-03-30T05:14:20.527Z,1019.70
2019-03-30T05:15:20.531Z,1019.66
2019-03-30T05:16:20.510Z,1019.68
2019-03-30T05:17:20.505Z,1019.68
2019-03-30T05:18:20.490Z,1019.65
2019-03-30T05:19:20.492Z,1019.66
2019-03-30T05:20:20.495Z,1019.64
2019-03-30T05:21:20.457Z,1019.62
2019-03-30T05:22:20.448Z,1019.64
2019-03-30T05:23:20.438Z,1019.68
2019-03-30T05:24:20.420Z,1019.65
2019-03-30T05:25:20.410Z,1019.68
2019-03-30T05:26:20.413Z,1019.68
2019-03-30T05:27:20.394Z,1019.68
2019-03-30T05:28:20.388Z,1019.69
2019-03-30T05:29:20.371Z,1019.72
2019-03-30T05:30:20.357Z,1019.70
2019-03-30T05:31:20.366Z,1019.72
2019-03-30T05:32:20.343Z,1019.74
2019-03-30T05:33:20.328Z,1019.71
2019-03-30T05:34:20.320Z,1019.65
2019-03-30T05:35:20.307Z,1019.69
2019-03-30T05:36:20.304Z,1019.63
2019-03-30T05:37:20.291Z,1019.63
2019-03-30T05:38:20.278Z,1019.63
2019-03-30T05:39:20.263Z,1019.65
2019-03-30T05:40:20.253Z,1019.62
2019-03-30T05:41:20.276Z,1019.66
2019-03-30T05:42:20.239Z,1019.68
2019-03-30T05:43:20.225Z,1019.66
2019-03-30T05:44:20.217Z,1019.68
2019-03-30T05:45:20.200Z,1019.63
2019-03-30T05:46:20.196Z,1019.70
2019-03-30T05:47:20.203Z,1019.69
2019-03-30T05:48:20.168Z,1019.69
2019-03-30T05:49:20.158Z,1019.67
2019-03-30T05:50:20.151Z,1019.67
2019-03-30T05:51:20.150Z,1019.70
2019-03-30T05:52:26.373Z,1019.64
2019-03-30T05:53:21.116Z,1019.65
2019-03-30T05:54:20.112Z,1019.62
2019-03-30T05:55:20.094Z,1019.68
2019-03-30T05:56:20.164Z,1019.66
2019-03-30T05:57:20.115Z,1019.63
2019-03-30T05:58:20.088Z,1019.68
2019-03-30T05:59:20.052Z,1019.61
2019-03-30T06:00:20.045Z,1019.58
2019-03-30T06:01:20.038Z,1019.62
2019-03-30T06:02:20.019Z,1019.60
2019-03-30T06:03:20.022Z,1019.61
2019-03-30T06:04:20.004Z,1019.57
2019-03-30T06:05:19.993Z,1019.56
2019-03-30T06:06:19.983Z,1019.53
2019-03-30T06:07:19.976Z,1019.54
2019-03-30T06:08:19.973Z,1019.53
2019-03-30T06:09:19.948Z,1019.50
2019-03-30T06:10:19.942Z,1019.52
2019-03-30T06:11:19.926Z,1019.51
2019-03-30T06:12:19.913Z,1019.53
2019-03-30T06:13:19.933Z,1019.49
2019-03-30T06:14:19.899Z,1019.51
2019-03-30T06:15:19.887Z,1019.50
2019-03-30T06:16:19.883Z,1019.50
2019-03-30T06:17:19.865Z,1019.53
2019-03-30T06:18:19.850Z,1019.46
2019-03-30T06:19:19.859Z,1019.45
2019-03-30T06:20:19.836Z,1019.48
2019-03-30T06:21:19.818Z,1019.45
2019-03-30T06:22:19.814Z,1019.46
2019-03-30T06:23:19.802Z,1019.43
2019-03-30T06:24:19.816Z,1019.41
2019-03-30T06:25:19.782Z,1019.45
2019-03-30T06:26:19.934Z,1019.41
2019-03-30T06:27:19.759Z,1019.42
2019-03-30T06:28:19.748Z,1019.38
2019-03-30T06:29:19.738Z,1019.34
2019-03-30T06:30:19.742Z,1019.31
2019-03-30T06:31:19.716Z,1019.32
2019-03-30T06:32:19.702Z,1019.30
2019-03-30T06:33:19.695Z,1019.33
2019-03-30T06:34:19.680Z,1019.28
2019-03-30T06:35:19.714Z,1019.31
2019-03-30T06:36:19.661Z,1019.28
2019-03-30T06:37:19.656Z,1019.31
2019-03-30T06:38:19.643Z,1019.27
2019-03-30T06:39:19.626Z,1019.34
2019-03-30T06:40:19.622Z,1019.34
2019-03-30T06:41:19.619Z,1019.32
2019-03-30T06:42:19.600Z,1019.36
2019-03-30T06:43:19.594Z,1019.36
2019-03-30T06:44:19.585Z,1019.35
2019-03-30T06:45:19.563Z,1019.34
2019-03-30T06:46:19.558Z,1019.37
2019-03-30T06:47:19.540Z,1019.30
2019-03-30T06:48:19.533Z,1019.30
2019-03-30T06:49:19.528Z,1019.25
2019-03-30T06:50:19.513Z,1019.22
2019-03-30T06:51:19.522Z,1019.18
2019-03-30T06:52:19.489Z,1019.17
2019-03-30T06:53:19.483Z,1019.15
2019-03-30T06:54:19.473Z,1019.18
2019-03-30T06:55:19.462Z,1019.14
2019-03-30T06:56:19.448Z,1019.13
2019-03-30T06:57:19.446Z,1019.12
2019-03-30T06:58:19.422Z,1019.15
2019-03-30T06:59:19.412Z,1019.18
2019-03-30T07:00:19.407Z,1019.17
2019-03-30T07:01:19.398Z,1019.16
2019-03-30T07:02:19.386Z,1019.10
2019-03-30T07:03:19.379Z,1019.09
2019-03-30T07:04:19.362Z,1019.09
2019-03-30T07:05:19.347Z,1019.10
2019-03-30T07:06:19.344Z,1019.10
2019-03-30T07:07:19.326Z,1019.10
2019-03-30T07:08:19.357Z,1019.10
2019-03-30T07:09:19.319Z,1019.05
2019-03-30T07:10:19.299Z,1019.09
2019-03-30T07:11:21.317Z,1019.07
2019-03-30T07:12:19.283Z,1019.13
2019-03-30T07:13:19.277Z,1019.08
2019-03-30T07:14:19.262Z,1019.01
2019-03-30T07:15:19.256Z,1019.07
2019-03-30T07:16:19.229Z,1019.06
2019-03-30T07:17:19.222Z,1019.07
2019-03-30T07:18:19.224Z,1019.12
2019-03-30T07:19:19.211Z,1019.07
2019-03-30T07:20:19.191Z,1019.09
2019-03-30T07:21:19.175Z,1019.10
2019-03-30T07:22:19.164Z,1019.09
2019-03-30T07:23:19.160Z,1019.07
2019-03-30T07:24:19.182Z,1019.03
2019-03-30T07:25:19.144Z,1019.05
2019-03-30T07:26:19.126Z,1019.05
2019-03-30T07:27:19.111Z,1019.08
2019-03-30T07:28:19.103Z,1019.05
2019-03-30T07:29:19.093Z,1018.99
2019-03-30T07:30:19.093Z,1019.08
2019-03-30T07:31:19.086Z,1019.01
2019-03-30T07:32:19.065Z,1019.06
2019-03-30T07:33:19.051Z,1019.02
2019-03-30T07:34:20.034Z,1019.05
2019-03-30T07:35:19.041Z,1019.03
2019-03-30T07:36:19.022Z,1019.04
2019-03-30T07:37:19.014Z,1019.05
2019-03-30T07:38:18.997Z,1019.12
2019-03-30T07:39:18.981Z,1019.10
2019-03-30T07:40:18.989Z,1019.06
2019-03-30T07:41:18.977Z,1019.02
2019-03-30T07:42:18.952Z,1019.03
2019-03-30T07:43:18.938Z,1019.04
2019-03-30T07:44:18.933Z,1019.03
2019-03-30T07:45:18.918Z,1018.99
2019-03-30T07:46:19.728Z,1019.02
2019-03-30T07:47:18.905Z,1019.04
2019-03-30T07:48:18.892Z,1019.03
2019-03-30T07:49:18.879Z,1019.10
2019-03-30T07:50:18.872Z,1019.06
2019-03-30T07:51:18.878Z,1019.09
2019-03-30T07:52:18.842Z,1019.08
2019-03-30T07:53:26.226Z,1019.09
2019-03-30T07:54:19.820Z,1019.12
2019-03-30T07:55:18.810Z,1019.07
2019-03-30T07:56:18.803Z,1019.10
2019-03-30T07:57:18.804Z,1019.09
2019-03-30T07:58:18.785Z,1019.06
2019-03-30T07:59:18.771Z,1019.03
2019-03-30T08:00:18.756Z,1019.04
2019-03-30T08:01:18.754Z,1019.02
2019-03-30T08:02:18.752Z,1019.07
2019-03-30T08:03:18.724Z,1019.09
2019-03-30T08:04:18.721Z,1019.08
2019-03-30T08:05:18.708Z,1019.05
2019-03-30T08:06:18.697Z,1019.06
2019-03-30T08:07:18.711Z,1019.05
2019-03-30T08:08:18.676Z,1019.04
2019-03-30T08:09:18.670Z,1019.01
2019-03-30T08:10:18.662Z,1019.04
2019-03-30T08:11:18.647Z,1019.01
2019-03-30T08:12:18.635Z,1019.04
2019-03-30T08:13:18.625Z,1019.00
2019-03-30T08:14:18.637Z,1018.97
2019-03-30T08:15:18.612Z,1019.03
2019-03-30T08:16:18.588Z,1018.95
2019-03-30T08:17:18.598Z,1018.96
2019-03-30T08:18:18.572Z,1018.96
2019-03-30T08:19:21.643Z,1018.95
2019-03-30T08:20:18.561Z,1018.94
2019-03-30T08:21:18.538Z,1018.94
2019-03-30T08:22:18.530Z,1018.90
2019-03-30T08:23:18.516Z,1018.88
2019-03-30T08:24:18.513Z,1018.89
2019-03-30T08:25:18.497Z,1018.86
2019-03-30T08:26:18.485Z,1018.88
2019-03-30T08:27:18.475Z,1018.90
2019-03-30T08:28:18.499Z,1018.88
2019-03-30T08:29:18.446Z,1018.86
2019-03-30T08:30:18.441Z,1018.86
2019-03-30T08:31:18.434Z,1018.83
2019-03-30T08:32:18.415Z,1018.86
2019-03-30T08:33:18.415Z,1018.88
2019-03-30T08:34:18.409Z,1018.85
2019-03-30T08:35:18.393Z,1018.87
2019-03-30T08:36:18.378Z,1018.82
2019-03-30T08:37:18.370Z,1018.84
2019-03-30T08:38:18.351Z,1018.89
2019-03-30T08:39:18.356Z,1018.86
2019-03-30T08:40:18.331Z,1018.79
2019-03-30T08:41:18.325Z,1018.76
2019-03-30T08:42:18.314Z,1018.75
2019-03-30T08:43:18.309Z,1018.79
2019-03-30T08:44:18.300Z,1018.73
2019-03-30T08:45:18.288Z,1018.77
2019-03-30T08:46:18.270Z,1018.73
2019-03-30T08:47:18.266Z,1018.74
2019-03-30T08:48:18.254Z,1018.73
2019-03-30T08:49:18.263Z,1018.70
2019-03-30T08:50:18.234Z,1018.69
2019-03-30T08:51:20.762Z,1018.73
2019-03-30T08:52:18.203Z,1018.77
2019-03-30T08:53:18.204Z,1018.74
2019-03-30T08:54:18.209Z,1018.73
2019-03-30T08:55:18.177Z,1018.72
2019-03-30T08:56:18.160Z,1018.73
2019-03-30T08:57:18.152Z,1018.76
2019-03-30T08:58:18.145Z,1018.75
2019-03-30T08:59:18.140Z,1018.73
2019-03-30T09:00:18.619Z,1018.74
2019-03-30T09:01:18.137Z,1018.70
2019-03-30T09:02:18.106Z,1018.74
2019-03-30T09:03:18.094Z,1018.68
2019-03-30T09:04:18.075Z,1018.65
2019-03-30T09:05:18.074Z,1018.61
2019-03-30T09:06:18.061Z,1018.57
2019-03-30T09:07:18.051Z,1018.57
2019-03-30T09:08:18.065Z,1018.55
2019-03-30T09:09:18.028Z,1018.57
2019-03-30T09:10:18.018Z,1018.56
2019-03-30T09:11:18.017Z,1018.53
2019-03-30T09:12:18.004Z,1018.53
2019-03-30T09:13:17.986Z,1018.52
2019-03-30T09:14:17.977Z,1018.52
2019-03-30T09:15:17.974Z,1018.51
2019-03-30T09:16:17.982Z,1018.48
2019-03-30T09:17:17.943Z,1018.50
2019-03-30T09:18:17.932Z,1018.47
2019-03-30T09:19:22.151Z,1018.41
2019-03-30T09:20:17.912Z,1018.37
2019-03-30T09:21:17.906Z,1018.36
2019-03-30T09:22:17.899Z,1018.35
2019-03-30T09:23:17.883Z,1018.40
2019-03-30T09:24:17.878Z,1018.40
2019-03-30T09:25:17.858Z,1018.42
2019-03-30T09:26:17.891Z,1018.34
2019-03-30T09:27:17.841Z,1018.35
2019-03-30T09:28:17.826Z,1018.35
2019-03-30T09:29:17.821Z,1018.31
2019-03-30T09:30:17.810Z,1018.26
2019-03-30T09:31:17.802Z,1018.29
2019-03-30T09:32:17.807Z,1018.29
2019-03-30T09:33:17.779Z,1018.30
2019-03-30T09:34:17.772Z,1018.28
2019-03-30T09:35:17.761Z,1018.24
2019-03-30T09:36:17.742Z,1018.23
2019-03-30T09:37:17.747Z,1018.20
2019-03-30T09:38:17.722Z,1018.16
2019-03-30T09:39:17.717Z,1018.22
2019-03-30T09:40:17.706Z,1018.20
2019-03-30T09:41:17.694Z,1018.14
2019-03-30T09:42:17.692Z,1018.16
2019-03-30T09:43:17.696Z,1018.09
2019-03-30T09:44:17.657Z,1018.11
2019-03-30T09:45:17.693Z,1018.10
2019-03-30T09:46:17.637Z,1018.12
2019-03-30T09:47:17.626Z,1018.10
2019-03-30T09:48:17.622Z,1018.08
2019-03-30T09:49:17.609Z,1018.09
2019-03-30T09:50:17.601Z,1018.07
2019-03-30T09:51:17.596Z,1018.16
2019-03-30T09:52:17.578Z,1018.09
2019-03-30T09:53:17.568Z,1018.02
2019-03-30T09:54:23.553Z,1018.03
2019-03-30T09:55:18.544Z,1017.93
2019-03-30T09:56:17.544Z,1017.94
2019-03-30T09:57:17.521Z,1017.91
2019-03-30T09:58:17.517Z,1017.89
2019-03-30T09:59:17.505Z,1017.89
2019-03-30T10:00:17.507Z,1017.95
2019-03-30T10:01:17.484Z,1017.89
2019-03-30T10:02:17.468Z,1017.90
2019-03-30T10:03:17.457Z,1017.88
2019-03-30T10:04:17.462Z,1017.87
2019-03-30T10:05:17.437Z,1017.83
2019-03-30T10:06:17.434Z,1017.92
2019-03-30T10:07:17.437Z,1017.89
2019-03-30T10:08:17.413Z,1017.83
2019-03-30T10:09:17.403Z,1017.90
2019-03-30T10:10:17.395Z,1017.87
2019-03-30T10:11:17.376Z,1017.92
2019-03-30T10:12:17.370Z,1017.84
2019-03-30T10:13:17.358Z,1017.85
2019-03-30T10:14:17.342Z,1017.80
2019-03-30T10:15:17.348Z,1017.82
2019-03-30T10:16:17.327Z,1017.79
2019-03-30T10:17:17.324Z,1017.76
2019-03-30T10:18:17.316Z,1017.78
2019-03-30T10:19:17.297Z,1017.76
2019-03-30T10:20:17.294Z,1017.76
2019-03-30T10:21:17.292Z,1017.76
2019-03-30T10:22:17.258Z,1017.74
2019-03-30T10:23:17.260Z,1017.71
2019-03-30T10:24:17.239Z,1017.72
2019-03-30T10:25:17.234Z,1017.73
2019-03-30T10:26:17.245Z,1017.71
2019-03-30T10:27:17.211Z,1017.64
2019-03-30T10:28:17.203Z,1017.64
2019-03-30T10:29:17.186Z,1017.63
2019-03-30T10:30:17.186Z,1017.64
2019-03-30T10:31:17.268Z,1017.62
2019-03-30T10:32:17.173Z,1017.60
2019-03-30T10:33:17.180Z,1017.58
2019-03-30T10:34:17.148Z,1017.53
2019-03-30T10:35:17.218Z,1017.52
2019-03-30T10:36:17.211Z,1017.48
2019-03-30T10:37:17.101Z,1017.49
2019-03-30T10:38:17.098Z,1017.41
2019-03-30T10:39:17.093Z,1017.47
2019-03-30T10:40:20.630Z,1017.37
2019-03-30T10:41:17.066Z,1017.45
2019-03-30T10:42:17.055Z,1017.42
2019-03-30T10:43:17.041Z,1017.46
2019-03-30T10:44:17.066Z,1017.41
2019-03-30T10:45:17.028Z,1017.44
2019-03-30T10:46:17.011Z,1017.37
2019-03-30T10:47:16.998Z,1017.34
2019-03-30T10:48:16.989Z,1017.38
2019-03-30T10:49:16.999Z,1017.33
2019-03-30T10:50:16.981Z,1017.31
2019-03-30T10:51:16.965Z,1017.36
2019-03-30T10:52:16.955Z,1017.34
2019-03-30T10:53:16.946Z,1017.35
2019-03-30T10:54:17.601Z,1017.34
2019-03-30T10:55:16.935Z,1017.31
2019-03-30T10:56:16.912Z,1017.31
2019-03-30T10:57:16.905Z,1017.29
2019-03-30T10:58:16.896Z,1017.29
2019-03-30T10:59:16.881Z,1017.25
2019-03-30T11:00:16.872Z,1017.28
2019-03-30T11:01:16.870Z,1017.28
2019-03-30T11:02:16.852Z,1017.25
2019-03-30T11:03:16.868Z,1017.19
2019-03-30T11:04:16.822Z,1017.15
2019-03-30T11:05:16.820Z,1017.16
2019-03-30T11:06:16.827Z,1017.13
2019-03-30T11:07:16.795Z,1017.14
2019-03-30T11:08:16.787Z,1017.18
2019-03-30T11:09:16.785Z,1017.11
2019-03-30T11:10:16.761Z,1017.13
2019-03-30T11:11:16.760Z,1017.07
2019-03-30T11:12:16.755Z,1017.08
2019-03-30T11:13:16.734Z,1017.08
2019-03-30T11:14:16.781Z,1017.04
2019-03-30T11:15:16.716Z,1017.03
2019-03-30T11:16:16.714Z,1016.98
2019-03-30T11:17:19.318Z,1016.98
2019-03-30T11:18:16.687Z,1016.96
2019-03-30T11:19:16.677Z,1016.99
2019-03-30T11:20:16.667Z,1016.98
2019-03-30T11:21:16.662Z,1016.93
2019-03-30T11:22:16.668Z,1016.90
2019-03-30T11:23:16.638Z,1016.88
2019-03-30T11:24:16.626Z,1016.92
2019-03-30T11:25:16.616Z,1016.86
2019-03-30T11:26:16.615Z,1016.87
2019-03-30T11:27:17.248Z,1016.92
2019-03-30T11:28:16.619Z,1016.94
2019-03-30T11:29:16.577Z,1016.96
2019-03-30T11:30:16.574Z,1016.98
2019-03-30T11:31:16.565Z,1016.89
2019-03-30T11:32:16.544Z,1016.86
2019-03-30T11:33:16.543Z,1016.90
2019-03-30T11:34:16.527Z,1016.78
2019-03-30T11:35:16.515Z,1016.75
2019-03-30T11:36:18.688Z,1016.76
2019-03-30T11:37:16.489Z,1016.73
2019-03-30T11:38:16.483Z,1016.73
2019-03-30T11:39:16.475Z,1016.73
2019-03-30T11:40:16.463Z,1016.70
2019-03-30T11:41:16.455Z,1016.68
2019-03-30T11:42:16.565Z,1016.71
2019-03-30T11:43:16.431Z,1016.70
2019-03-30T11:44:16.424Z,1016.65
2019-03-30T11:45:16.408Z,1016.66
2019-03-30T11:46:16.408Z,1016.63
2019-03-30T11:47:16.412Z,1016.60
2019-03-30T11:48:16.383Z,1016.66
2019-03-30T11:49:16.368Z,1016.60
2019-03-30T11:50:16.359Z,1016.56
2019-03-30T11:51:16.355Z,1016.58
2019-03-30T11:52:16.376Z,1016.53
2019-03-30T11:53:16.329Z,1016.46
2019-03-30T11:54:16.326Z,1016.48
2019-03-30T11:55:22.194Z,1016.44
2019-03-30T11:56:17.307Z,1016.41
2019-03-30T11:57:16.290Z,1016.38
2019-03-30T11:58:16.296Z,1016.40
2019-03-30T11:59:16.266Z,1016.38
2019-03-30T12:00:16.262Z,1016.40
2019-03-30T12:01:16.246Z,1016.38
2019-03-30T12:02:27.278Z,1016.34
2019-03-30T12:03:17.236Z,1016.25
2019-03-30T12:04:16.224Z,1016.24
2019-03-30T12:05:16.206Z,1016.29
2019-03-30T12:06:16.201Z,1016.28
2019-03-30T12:07:16.190Z,1016.28
2019-03-30T12:08:16.179Z,1016.27
2019-03-30T12:09:16.478Z,1016.18
2019-03-30T12:10:16.155Z,1016.07
2019-03-30T12:11:16.171Z,1016.11
2019-03-30T12:12:16.134Z,1016.09
2019-03-30T12:13:16.130Z,1016.06
2019-03-30T12:14:16.129Z,1016.05
2019-03-30T12:15:16.117Z,1016.04
2019-03-30T12:16:16.105Z,1016.02
2019-03-30T12:17:16.096Z,1015.95
2019-03-30T12:18:16.080Z,1016.00
2019-03-30T12:19:16.079Z,1015.93
2019-03-30T12:20:16.062Z,1015.94
2019-03-30T12:21:16.065Z,1015.91
2019-03-30T12:22:16.034Z,1015.84
2019-03-30T12:23:16.024Z,1015.86
2019-03-30T12:24:16.028Z,1015.83
2019-03-30T12:25:16.008Z,1015.79
2019-03-30T12:26:16.235Z,1015.77
2019-03-30T12:27:16.000Z,1015.77
2019-03-30T12:28:15.984Z,1015.75
2019-03-30T12:29:15.965Z,1015.71
2019-03-30T12:30:15.969Z,1015.63
2019-03-30T12:31:15.945Z,1015.69
2019-03-30T12:32:15.947Z,1015.71
2019-03-30T12:33:15.936Z,1015.73
2019-03-30T12:34:15.917Z,1015.65
2019-03-30T12:35:15.911Z,1015.67
2019-03-30T12:36:16.123Z,1015.61
2019-03-30T12:37:15.897Z,1015.57
2019-03-30T12:38:15.871Z,1015.60
2019-03-30T12:39:15.877Z,1015.54
2019-03-30T12:40:15.855Z,1015.52
2019-03-30T12:41:15.846Z,1015.50
2019-03-30T12:42:15.857Z,1015.55
2019-03-30T12:43:15.823Z,1015.53
2019-03-30T12:44:15.814Z,1015.56
2019-03-30T12:45:15.815Z,1015.57
2019-03-30T12:46:15.790Z,1015.51
2019-03-30T12:47:15.784Z,1015.49
2019-03-30T12:48:15.812Z,1015.51
2019-03-30T12:49:15.767Z,1015.45
2019-03-30T12:50:15.754Z,1015.51
2019-03-30T12:51:15.745Z,1015.44
2019-03-30T12:52:15.730Z,1015.39
2019-03-30T12:53:15.716Z,1015.43
2019-03-30T12:54:15.721Z,1015.35
2019-03-30T12:55:15.699Z,1015.47
2019-03-30T12:56:15.687Z,1015.41
2019-03-30T12:57:15.686Z,1015.43
2019-03-30T12:58:15.665Z,1015.41
2019-03-30T12:59:15.672Z,1015.35
2019-03-30T13:00:15.646Z,1015.32
2019-03-30T13:01:15.776Z,1015.26
2019-03-30T13:02:15.631Z,1015.31
2019-03-30T13:03:15.621Z,1015.26
2019-03-30T13:04:15.608Z,1015.26
2019-03-30T13:05:15.650Z,1015.31
2019-03-30T13:06:15.609Z,1015.37
2019-03-30T13:07:15.571Z,1015.35
2019-03-30T13:08:15.574Z,1015.30
2019-03-30T13:09:15.556Z,1015.28
2019-03-30T13:10:15.545Z,1015.25
2019-03-30T13:11:15.557Z,1015.23
2019-03-30T13:12:15.527Z,1015.27
2019-03-30T13:13:15.518Z,1015.26
2019-03-30T13:14:15.502Z,1015.26
2019-03-30T13:15:15.500Z,1015.27
2019-03-30T13:16:15.484Z,1015.26
2019-03-30T13:17:15.499Z,1015.28
2019-03-30T13:18:15.463Z,1015.24
2019-03-30T13:19:15.448Z,1015.11
2019-03-30T13:20:15.441Z,1015.15
2019-03-30T13:21:15.430Z,1015.15
2019-03-30T13:22:15.415Z,1015.08
2019-03-30T13:23:15.440Z,1015.16
2019-03-30T13:24:15.392Z,1015.15
2019-03-30T13:25:15.392Z,1015.04
2019-03-30T13:26:15.376Z,1015.03
2019-03-30T13:27:16.197Z,1015.04
2019-03-30T13:28:15.355Z,1015.03
2019-03-30T13:29:15.352Z,1015.05
2019-03-30T13:30:15.338Z,1014.99
2019-03-30T13:31:15.329Z,1015.04
2019-03-30T13:32:15.716Z,1015.14
2019-03-30T13:33:15.305Z,1015.04
2019-03-30T13:34:15.285Z,1015.03
2019-03-30T13:35:15.280Z,1015.01
2019-03-30T13:36:15.329Z,1015.01
2019-03-30T13:37:16.197Z,1014.98
2019-03-30T13:38:15.426Z,1014.87
2019-03-30T13:39:15.251Z,1014.81
2019-03-30T13:40:15.226Z,1014.86
2019-03-30T13:41:15.216Z,1014.91
2019-03-30T13:42:15.203Z,1014.98
2019-03-30T13:43:15.203Z,1014.91
2019-03-30T13:44:15.186Z,1014.92
2019-03-30T13:45:15.166Z,1014.91
2019-03-30T13:46:15.170Z,1014.94
2019-03-30T13:47:15.150Z,1014.85
2019-03-30T13:48:15.139Z,1014.84
2019-03-30T13:49:15.136Z,1014.81
2019-03-30T13:50:15.114Z,1014.76
2019-03-30T13:51:15.147Z,1014.76
2019-03-30T13:52:15.096Z,1014.68
2019-03-30T13:53:15.085Z,1014.71
2019-03-30T13:54:15.078Z,1014.73
2019-03-30T13:55:15.330Z,1014.69
2019-03-30T13:56:17.461Z,1014.71
2019-03-30T13:57:15.052Z,1014.68
2019-03-30T13:58:15.029Z,1014.75
2019-03-30T13:59:15.027Z,1014.66
2019-03-30T14:00:15.072Z,1014.68
2019-03-30T14:01:14.999Z,1014.69
2019-03-30T14:02:14.986Z,1014.68
2019-03-30T14:03:14.975Z,1014.65
2019-03-30T14:04:14.968Z,1014.63
2019-03-30T14:05:14.962Z,1014.57
2019-03-30T14:06:14.961Z,1014.57
2019-03-30T14:07:14.940Z,1014.60
2019-03-30T14:08:14.928Z,1014.51
2019-03-30T14:09:14.918Z,1014.60
2019-03-30T14:10:15.679Z,1014.61
2019-03-30T14:11:14.903Z,1014.54
2019-03-30T14:12:14.879Z,1014.52
2019-03-30T14:13:14.871Z,1014.60
2019-03-30T14:14:14.968Z,1014.59
2019-03-30T14:15:14.857Z,1014.54
2019-03-30T14:16:14.850Z,1014.48
2019-03-30T14:17:14.843Z,1014.46
2019-03-30T14:18:14.856Z,1014.47
2019-03-30T14:19:14.852Z,1014.53
2019-03-30T14:20:14.816Z,1014.49
2019-03-30T14:21:14.860Z,1014.52
2019-03-30T14:22:14.774Z,1014.53
2019-03-30T14:23:14.821Z,1014.51
2019-03-30T14:24:14.817Z,1014.51
2019-03-30T14:25:14.750Z,1014.51
2019-03-30T14:26:14.742Z,1014.51
2019-03-30T14:27:14.735Z,1014.47
2019-03-30T14:28:14.778Z,1014.47
2019-03-30T14:29:14.817Z,1014.45
2019-03-30T14:30:14.709Z,1014.45
2019-03-30T14:31:14.721Z,1014.39
2019-03-30T14:32:14.679Z,1014.36
2019-03-30T14:33:14.664Z,1014.31
2019-03-30T14:34:14.667Z,1014.28
2019-03-30T14:35:14.641Z,1014.29
2019-03-30T14:36:14.636Z,1014.28
2019-03-30T14:37:14.612Z,1014.26
2019-03-30T14:38:14.604Z,1014.20
2019-03-30T14:39:14.593Z,1014.29
2019-03-30T14:40:14.598Z,1014.24
2019-03-30T14:41:14.573Z,1014.27
2019-03-30T14:42:14.560Z,1014.29
2019-03-30T14:43:14.556Z,1014.25
2019-03-30T14:44:14.702Z,1014.24
2019-03-30T14:45:14.630Z,1014.17
2019-03-30T14:46:14.528Z,1014.20
2019-03-30T14:47:14.504Z,1014.15
2019-03-30T14:48:14.503Z,1014.11
2019-03-30T14:49:14.550Z,1014.10
2019-03-30T14:50:14.734Z,1014.10
2019-03-30T14:51:14.462Z,1014.07
2019-03-30T14:52:14.462Z,1014.09
2019-03-30T14:53:14.585Z,1014.00
2019-03-30T14:54:14.452Z,1014.03
2019-03-30T14:55:14.434Z,1014.02
2019-03-30T14:56:14.414Z,1013.94
2019-03-30T14:57:14.404Z,1013.93
2019-03-30T14:58:14.398Z,1013.91
2019-03-30T14:59:14.671Z,1013.92
2019-03-30T15:00:14.427Z,1013.89
2019-03-30T15:01:14.356Z,1013.95
2019-03-30T15:02:14.353Z,1013.84
2019-03-30T15:03:14.344Z,1013.81
2019-03-30T15:04:14.324Z,1013.82
2019-03-30T15:05:14.328Z,1013.80
2019-03-30T15:06:14.320Z,1013.76
2019-03-30T15:07:14.298Z,1013.79
2019-03-30T15:08:14.285Z,1013.78
2019-03-30T15:09:14.271Z,1013.74
2019-03-30T15:10:14.262Z,1013.74
2019-03-30T15:11:14.281Z,1013.71
2019-03-30T15:12:14.256Z,1013.82
2019-03-30T15:13:14.233Z,1013.76
2019-03-30T15:14:14.225Z,1013.73
2019-03-30T15:15:14.216Z,1013.71
2019-03-30T15:16:14.201Z,1013.65
2019-03-30T15:17:14.202Z,1013.72
2019-03-30T15:18:14.181Z,1013.69
2019-03-30T15:19:14.168Z,1013.69
2019-03-30T15:20:14.181Z,1013.67
2019-03-30T15:21:14.149Z,1013.65
2019-03-30T15:22:14.195Z,1013.66
2019-03-30T15:23:14.125Z,1013.60
2019-03-30T15:24:14.119Z,1013.60
2019-03-30T15:25:14.106Z,1013.61
2019-03-30T15:26:14.097Z,1013.61
2019-03-30T15:27:14.088Z,1013.58
2019-03-30T15:28:14.083Z,1013.59
2019-03-30T15:29:14.058Z,1013.57
2019-03-30T15:30:14.048Z,1013.58
2019-03-30T15:31:14.044Z,1013.58
2019-03-30T15:32:14.242Z,1013.53
2019-03-30T15:33:14.036Z,1013.55
2019-03-30T15:34:14.007Z,1013.61
2019-03-30T15:35:13.998Z,1013.56
2019-03-30T15:36:13.988Z,1013.52
2019-03-30T15:37:13.986Z,1013.56
2019-03-30T15:38:13.970Z,1013.54
2019-03-30T15:39:13.961Z,1013.50
2019-03-30T15:40:13.939Z,1013.49
2019-03-30T15:41:13.932Z,1013.46
2019-03-30T15:42:13.949Z,1013.48
2019-03-30T15:43:13.931Z,1013.47
2019-03-30T15:44:13.917Z,1013.48
2019-03-30T15:45:13.893Z,1013.48
2019-03-30T15:46:14.429Z,1013.48
2019-03-30T15:47:13.870Z,1013.43
2019-03-30T15:48:13.859Z,1013.42
2019-03-30T15:49:13.856Z,1013.42
2019-03-30T15:50:13.831Z,1013.40
2019-03-30T15:51:13.820Z,1013.41
2019-03-30T15:52:14.474Z,1013.40
2019-03-30T15:53:13.800Z,1013.39
2019-03-30T15:54:13.823Z,1013.36
2019-03-30T15:55:13.793Z,1013.35
2019-03-30T15:56:13.774Z,1013.32
2019-03-30T15:57:14.562Z,1013.32
2019-03-30T15:58:13.747Z,1013.29
2019-03-30T15:59:13.733Z,1013.30
2019-03-30T16:00:13.755Z,1013.29
2019-03-30T16:01:13.725Z,1013.32
2019-03-30T16:02:13.702Z,1013.35
2019-03-30T16:03:13.698Z,1013.28
2019-03-30T16:04:13.687Z,1013.28
2019-03-30T16:05:15.676Z,1013.27
2019-03-30T16:06:13.666Z,1013.26
2019-03-30T16:07:13.648Z,1013.30
2019-03-30T16:08:13.643Z,1013.31
2019-03-30T16:09:13.627Z,1013.32
2019-03-30T16:10:13.626Z,1013.31
2019-03-30T16:11:13.626Z,1013.28
2019-03-30T16:12:13.613Z,1013.35
2019-03-30T16:13:14.785Z,1013.33
2019-03-30T16:14:13.580Z,1013.31
2019-03-30T16:15:13.570Z,1013.36
2019-03-30T16:16:13.591Z,1013.33
2019-03-30T16:17:15.015Z,1013.31
2019-03-30T16:18:13.547Z,1013.30
2019-03-30T16:19:13.521Z,1013.32
2019-03-30T16:20:13.508Z,1013.31
2019-03-30T16:21:13.511Z,1013.31
2019-03-30T16:22:13.533Z,1013.29
2019-03-30T16:23:13.484Z,1013.31
2019-03-30T16:24:13.653Z,1013.28
2019-03-30T16:25:13.513Z,1013.30
2019-03-30T16:26:13.449Z,1013.32
2019-03-30T16:27:27.818Z,1013.27
2019-03-30T16:28:14.447Z,1013.21
2019-03-30T16:29:13.421Z,1013.25
2019-03-30T16:30:13.568Z,1013.24
2019-03-30T16:31:13.388Z,1013.25
2019-03-30T16:32:16.777Z,1013.23
2019-03-30T16:33:20.473Z,1013.23
2019-03-30T16:34:13.357Z,1013.30
2019-03-30T16:35:13.345Z,1013.32
2019-03-30T16:36:13.336Z,1013.29
2019-03-30T16:37:13.330Z,1013.31
2019-03-30T16:38:13.352Z,1013.28
2019-03-30T16:39:13.308Z,1013.27
2019-03-30T16:40:13.298Z,1013.29
2019-03-30T16:41:13.283Z,1013.26
2019-03-30T16:42:13.293Z,1013.25
2019-03-30T16:43:13.266Z,1013.24
2019-03-30T16:44:13.256Z,1013.22
2019-03-30T16:45:13.243Z,1013.26
2019-03-30T16:46:13.231Z,1013.26
2019-03-30T16:47:13.223Z,1013.18
2019-03-30T16:48:14.853Z,1013.20
2019-03-30T16:49:13.230Z,1013.16
2019-03-30T16:50:13.185Z,1013.24
2019-03-30T16:51:13.176Z,1013.18